createdAt,value
2018-04-07T00:00:28.137Z,10.30
2018-04-07T00:02:55.577Z,10.20
2018-04-07T00:05:23.025Z,10.20
2018-04-07T00:07:50.466Z,10.20
2018-04-07T00:10:17.907Z,10.10
2018-04-07T00:12:45.349Z,10.10
2018-04-07T00:15:12.799Z,10.00
2018-04-07T00:17:40.245Z,10.00
2018-04-07T00:20:07.687Z,10.00
2018-04-07T00:22:35.909Z,9.90
2018-04-07T00:25:03.342Z,9.90
2018-04-07T00:27:31.494Z,9.90
2018-04-07T00:29:58.923Z,9.90
2018-04-07T00:32:26.365Z,9.90
2018-04-07T00:34:53.801Z,9.90
2018-04-07T00:37:21.246Z,9.90
2018-04-07T00:39:48.686Z,9.80
2018-04-07T00:42:16.125Z,9.70
2018-04-07T00:44:43.553Z,9.70
2018-04-07T00:47:11.006Z,9.60
2018-04-07T00:49:38.446Z,9.50
2018-04-07T00:52:05.903Z,9.50
2018-04-07T00:54:33.337Z,9.50
2018-04-07T00:57:00.775Z,9.50
2018-04-07T00:59:28.209Z,9.40
2018-04-07T01:01:56.405Z,9.40
2018-04-07T01:04:23.842Z,9.40
2018-04-07T01:06:52.054Z,9.30
2018-04-07T01:09:19.494Z,9.30
2018-04-07T01:11:46.929Z,9.30
2018-04-07T01:14:15.145Z,9.20
2018-04-07T01:16:42.569Z,9.20
2018-04-07T01:48:56.327Z,8.80
2018-04-07T01:51:23.757Z,8.70
2018-04-07T01:53:51.966Z,8.60
2018-04-07T01:56:19.399Z,8.60
2018-04-07T01:58:47.601Z,8.50
2018-04-07T02:01:15.038Z,8.50
2018-04-07T02:03:42.486Z,8.40
2018-04-07T02:06:09.924Z,8.40
2018-04-07T02:08:38.122Z,8.20
2018-04-07T02:11:05.558Z,8.10
2018-04-07T02:13:33.762Z,7.90
2018-04-07T02:16:01.193Z,7.90
2018-04-07T02:18:29.398Z,8.00
2018-04-07T02:20:56.830Z,8.00
2018-04-07T02:23:24.274Z,8.00
2018-04-07T02:25:52.475Z,8.00
2018-04-07T02:28:19.919Z,7.90
2018-04-07T02:30:47.354Z,8.00
2018-04-07T02:33:14.782Z,8.00
2018-04-07T02:35:42.222Z,7.90
2018-04-07T02:38:09.658Z,7.90
2018-04-07T02:40:37.151Z,7.80
2018-04-07T02:43:04.546Z,7.70
2018-04-07T02:45:32.762Z,7.80
2018-04-07T02:48:00.205Z,7.70
2018-04-07T02:50:27.655Z,7.80
2018-04-07T02:52:55.078Z,7.80
2018-04-07T02:55:22.518Z,7.80
2018-04-07T02:57:49.942Z,7.70
2018-04-07T03:00:17.435Z,7.50
2018-04-07T03:02:44.862Z,7.40
2018-04-07T03:05:12.306Z,7.30
2018-04-07T03:07:39.742Z,7.30
2018-04-07T03:10:07.183Z,7.30
2018-04-07T03:12:35.394Z,7.20
2018-04-07T03:15:02.826Z,7.20
2018-04-07T03:17:30.254Z,7.10
2018-04-07T03:19:57.698Z,7.00
2018-04-07T03:22:25.129Z,7.00
2018-04-07T03:24:52.577Z,6.90
2018-04-07T03:27:20.009Z,6.90
2018-04-07T03:29:47.450Z,6.90
2018-04-07T03:32:15.649Z,7.00
2018-04-07T03:34:43.084Z,6.90
2018-04-07T03:37:10.514Z,7.00
2018-04-07T03:39:37.954Z,7.10
2018-04-07T03:42:05.398Z,7.10
2018-04-07T03:44:32.838Z,7.10
2018-04-07T03:47:00.284Z,7.10
2018-04-07T03:49:27.722Z,7.20
2018-04-07T03:51:55.924Z,7.10
2018-04-07T03:54:23.354Z,7.10
2018-04-07T03:56:50.794Z,7.10
2018-04-07T03:59:19.004Z,6.80
2018-04-07T04:01:46.442Z,6.80
2018-04-07T04:04:13.885Z,6.70
2018-04-07T04:06:42.096Z,6.60
2018-04-07T04:09:09.521Z,6.60
2018-04-07T04:11:36.960Z,6.50
2018-04-07T04:14:05.157Z,6.40
2018-04-07T04:16:32.597Z,6.40
2018-04-07T04:19:00.798Z,6.50
2018-04-07T04:21:28.238Z,6.40
2018-04-07T04:23:55.678Z,6.50
2018-04-07T04:26:23.916Z,6.60
2018-04-07T04:28:52.118Z,6.60
2018-04-07T04:31:19.558Z,6.60
2018-04-07T04:33:46.999Z,6.60
2018-04-07T04:36:14.448Z,6.50
2018-04-07T04:38:41.881Z,6.50
2018-04-07T04:41:09.321Z,6.50
2018-04-07T04:43:37.518Z,6.60
2018-04-07T04:46:04.959Z,6.60
2018-04-07T04:48:32.401Z,6.70
2018-04-07T04:51:00.597Z,6.80
2018-04-07T04:53:28.035Z,6.70
2018-04-07T04:55:56.237Z,6.80
2018-04-07T04:58:23.674Z,6.80
2018-04-07T05:00:51.105Z,6.80
2018-04-07T05:03:19.325Z,6.90
2018-04-07T05:05:46.758Z,6.80
2018-04-07T05:08:14.199Z,6.90
2018-04-07T05:10:42.390Z,7.00
2018-04-07T05:13:09.834Z,7.00
2018-04-07T05:15:38.035Z,7.10
2018-04-07T05:18:05.469Z,7.10
2018-04-07T05:20:32.909Z,7.20
2018-04-07T05:23:00.346Z,7.20
2018-04-07T05:25:27.791Z,7.20
2018-04-07T05:27:55.225Z,7.30
2018-04-07T05:30:22.662Z,7.30
2018-04-07T05:32:50.097Z,7.30
2018-04-07T05:35:18.302Z,7.20
2018-04-07T05:37:45.747Z,7.20
2018-04-07T05:40:13.178Z,7.20
2018-04-07T05:42:41.384Z,7.20
2018-04-07T05:45:08.814Z,7.20
2018-04-07T05:47:37.017Z,7.40
2018-04-07T05:50:04.458Z,7.30
2018-04-07T05:52:31.906Z,7.40
2018-04-07T05:55:00.103Z,7.60
2018-04-07T05:57:27.542Z,7.50
2018-04-07T05:59:54.980Z,7.60
2018-04-07T06:02:23.177Z,7.70
2018-04-07T06:04:50.609Z,7.60
2018-04-07T06:07:18.815Z,7.80
2018-04-07T06:09:46.262Z,7.80
2018-04-07T06:12:13.704Z,7.90
2018-04-07T06:14:41.898Z,8.10
2018-04-07T06:17:09.334Z,8.10
2018-04-07T06:19:37.549Z,8.30
2018-04-07T06:22:05.014Z,8.30
2018-04-07T06:24:32.459Z,8.40
2018-04-07T06:26:59.895Z,8.50
2018-04-07T06:29:27.331Z,8.60
2018-04-07T06:31:55.546Z,8.80
2018-04-07T06:34:22.981Z,8.80
2018-04-07T06:36:50.431Z,9.00
2018-04-07T06:39:17.884Z,9.10
2018-04-07T06:41:46.078Z,9.30
2018-04-07T06:44:13.518Z,9.30
2018-04-07T06:46:40.962Z,9.40
2018-04-07T06:49:09.582Z,9.70
2018-04-07T06:51:37.019Z,9.60
2018-04-07T06:54:04.456Z,9.80
2018-04-07T06:56:32.663Z,10.00
2018-04-07T06:59:00.110Z,9.90
2018-04-07T07:01:27.547Z,10.10
2018-04-07T07:03:55.000Z,10.10
2018-04-07T07:06:23.202Z,10.30
2018-04-07T07:08:50.681Z,10.30
2018-04-07T07:11:18.116Z,10.50
2018-04-07T07:13:45.550Z,10.60
2018-04-07T07:16:12.998Z,10.70
2018-04-07T07:18:41.200Z,11.00
2018-04-07T07:21:08.651Z,11.00
2018-04-07T07:23:36.094Z,11.20
2018-04-07T07:26:03.546Z,11.30
2018-04-07T07:28:30.994Z,11.40
2018-04-07T07:30:59.218Z,11.70
2018-04-07T07:33:26.667Z,11.70
2018-04-07T07:35:54.108Z,11.90
2018-04-07T07:38:21.562Z,12.00
2018-04-07T07:40:49.017Z,12.20
2018-04-07T07:43:16.449Z,12.20
2018-04-07T07:45:44.672Z,12.40
2018-04-07T07:48:12.122Z,12.40
2018-04-07T07:50:39.570Z,12.50
2018-04-07T07:53:07.013Z,12.60
2018-04-07T07:55:34.461Z,12.70
2018-04-07T07:58:01.909Z,12.80
2018-04-07T08:00:30.124Z,13.00
2018-04-07T08:02:57.563Z,13.00
2018-04-07T08:05:25.044Z,13.10
2018-04-07T08:07:52.455Z,13.20
2018-04-07T08:10:19.919Z,13.30
2018-04-07T08:12:47.419Z,13.40
2018-04-07T08:15:14.874Z,13.40
2018-04-07T08:17:42.305Z,13.50
2018-04-07T08:20:09.754Z,13.70
2018-04-07T08:22:37.194Z,13.80
2018-04-07T08:25:04.641Z,13.90
2018-04-07T08:27:32.859Z,14.10
2018-04-07T08:30:00.294Z,14.10
2018-04-07T08:32:27.734Z,14.20
2018-04-07T08:34:55.939Z,14.30
2018-04-07T08:37:23.389Z,14.30
2018-04-07T08:39:50.843Z,14.40
2018-04-07T08:42:18.283Z,14.60
2018-04-07T08:44:45.719Z,14.70
2018-04-07T08:47:14.792Z,14.90
2018-04-07T08:49:42.226Z,14.90
2018-04-07T08:52:09.675Z,15.00
2018-04-07T08:54:37.225Z,15.10
2018-04-07T08:57:04.671Z,15.10
2018-04-07T08:59:32.114Z,15.20
2018-04-07T09:01:59.558Z,15.30
2018-04-07T09:04:27.761Z,15.50
2018-04-07T09:06:55.213Z,15.50
2018-04-07T09:09:22.649Z,15.70
2018-04-07T09:11:50.862Z,15.90
2018-04-07T09:14:18.304Z,15.80
2018-04-07T09:16:45.746Z,16.00
2018-04-07T09:19:13.182Z,16.10
2018-04-07T09:21:41.386Z,16.30
2018-04-07T09:24:08.830Z,16.30
2018-04-07T09:26:36.280Z,16.40
2018-04-07T09:29:04.486Z,16.60
2018-04-07T09:31:31.964Z,16.60
2018-04-07T09:33:59.366Z,16.60
2018-04-07T09:36:27.573Z,16.70
2018-04-07T09:38:55.010Z,16.70
2018-04-07T09:41:22.457Z,16.80
2018-04-07T09:43:50.093Z,16.90
2018-04-07T09:46:17.542Z,17.00
2018-04-07T09:48:44.982Z,17.10
2018-04-07T09:51:12.435Z,17.10
2018-04-07T09:53:39.882Z,17.20
2018-04-07T09:56:07.323Z,17.20
2018-04-07T09:58:34.749Z,17.30
2018-04-07T10:01:02.198Z,17.30
2018-04-07T10:03:30.420Z,17.50
2018-04-07T10:05:57.855Z,17.50
2018-04-07T10:08:25.301Z,17.60
2018-04-07T10:10:52.729Z,17.60
2018-04-07T10:13:20.169Z,17.70
2018-04-07T10:15:47.613Z,17.80
2018-04-07T10:18:15.053Z,17.90
2018-04-07T10:20:42.494Z,18.00
2018-04-07T10:23:09.944Z,18.00
2018-04-07T10:25:37.386Z,18.10
2018-04-07T10:28:04.834Z,18.10
2018-04-07T10:30:33.033Z,18.40
2018-04-07T10:33:00.514Z,18.40
2018-04-07T10:35:27.957Z,18.80
2018-04-07T10:37:55.406Z,19.20
2018-04-07T10:40:22.844Z,19.60
2018-04-07T10:42:51.053Z,20.40
2018-04-07T10:45:18.498Z,20.30
2018-04-07T10:47:45.947Z,20.80
2018-04-07T10:50:14.199Z,21.20
2018-04-07T10:52:41.710Z,21.60
2018-04-07T10:55:09.078Z,21.80
2018-04-07T10:57:36.530Z,21.80
2018-04-07T11:00:03.990Z,21.90
2018-04-07T11:02:31.430Z,22.00
2018-04-07T11:04:58.878Z,21.90
2018-04-07T11:07:26.319Z,21.90
2018-04-07T11:09:53.762Z,21.90
2018-04-07T11:12:21.206Z,22.00
2018-04-07T11:14:49.425Z,22.10
2018-04-07T11:17:16.912Z,22.10
2018-04-07T11:19:44.314Z,22.10
2018-04-07T11:22:11.761Z,21.90
2018-04-07T11:24:39.205Z,21.70
2018-04-07T11:27:07.406Z,21.20
2018-04-07T11:29:34.845Z,21.20
2018-04-07T11:32:02.296Z,21.00
2018-04-07T11:34:30.507Z,20.70
2018-04-07T11:36:57.954Z,20.60
2018-04-07T11:39:25.429Z,20.50
2018-04-07T11:41:52.834Z,20.50
2018-04-07T11:44:21.051Z,20.30
2018-04-07T11:46:48.486Z,20.30
2018-04-07T11:49:15.934Z,20.30
2018-04-07T11:51:43.376Z,20.30
2018-04-07T11:54:11.591Z,20.40
2018-04-07T11:56:39.021Z,20.30
2018-04-07T11:59:06.470Z,20.40
2018-04-07T12:01:34.698Z,20.40
2018-04-07T12:04:02.644Z,20.40
2018-04-07T12:06:30.076Z,20.40
2018-04-07T12:08:57.527Z,20.40
2018-04-07T12:11:24.981Z,20.40
2018-04-07T12:16:27.906Z,20.50
2018-04-07T12:18:55.365Z,20.50
2018-04-07T12:21:22.793Z,20.60
2018-04-07T12:23:50.237Z,20.60
2018-04-07T12:26:18.438Z,20.60
2018-04-07T12:28:45.884Z,20.60
2018-04-07T12:31:13.314Z,20.60
2018-04-07T12:33:41.527Z,20.80
2018-04-07T12:36:08.966Z,20.70
2018-04-07T12:38:36.421Z,20.80
2018-04-07T12:41:03.856Z,20.90
2018-04-07T12:43:32.066Z,21.00
2018-04-07T12:45:59.509Z,21.00
2018-04-07T12:48:26.951Z,21.00
2018-04-07T12:50:55.163Z,21.10
2018-04-07T12:53:22.601Z,21.10
2018-04-07T12:55:50.054Z,21.20
2018-04-07T12:58:17.495Z,21.20
2018-04-07T13:00:45.709Z,21.30
2018-04-07T13:03:13.145Z,21.30
2018-04-07T13:05:40.599Z,21.30
2018-04-07T13:08:08.041Z,21.40
2018-04-07T13:10:36.245Z,21.50
2018-04-07T13:13:03.696Z,21.50
2018-04-07T13:15:31.130Z,21.50
2018-04-07T13:17:59.330Z,21.60
2018-04-07T13:20:26.784Z,21.60
2018-04-07T13:22:54.218Z,21.70
2018-04-07T13:25:21.667Z,21.70
2018-04-07T13:27:49.873Z,21.90
2018-04-07T13:30:17.339Z,21.90
2018-04-07T13:32:44.775Z,22.00
2018-04-07T13:35:12.222Z,22.00
2018-04-07T13:37:39.663Z,22.10
2018-04-07T13:40:07.874Z,22.20
2018-04-07T13:42:35.319Z,22.20
2018-04-07T13:45:02.763Z,22.30
2018-04-07T13:47:30.197Z,22.40
2018-04-07T13:49:58.418Z,22.50
2018-04-07T13:52:25.862Z,22.50
2018-04-07T13:54:53.306Z,22.60
2018-04-07T13:57:20.754Z,22.70
2018-04-07T13:59:48.968Z,22.80
2018-04-07T14:02:16.406Z,22.80
2018-04-07T14:04:43.863Z,22.90
2018-04-07T14:07:11.306Z,23.10
2018-04-07T14:09:38.748Z,23.20
2018-04-07T14:12:06.958Z,23.40
2018-04-07T14:14:34.394Z,23.40
2018-04-07T14:17:01.860Z,23.50
2018-04-07T14:19:30.042Z,23.60
2018-04-07T14:21:57.486Z,23.60
2018-04-07T14:24:24.930Z,23.70
2018-04-07T14:26:52.381Z,23.80
2018-04-07T14:29:20.586Z,24.00
2018-04-07T14:31:48.043Z,24.00
2018-04-07T14:34:15.483Z,24.20
2018-04-07T14:36:42.936Z,24.50
2018-04-07T14:39:10.383Z,25.10
2018-04-07T14:41:38.588Z,26.70
2018-04-07T14:44:06.021Z,26.70
2018-04-07T14:46:33.471Z,27.90
2018-04-07T14:49:00.917Z,29.10
2018-04-07T14:51:29.119Z,30.10
2018-04-07T14:53:56.555Z,30.00
2018-04-07T14:56:23.997Z,30.60
2018-04-07T14:58:52.198Z,32.60
2018-04-07T15:01:19.640Z,32.50
2018-04-07T15:03:47.842Z,34.90
2018-04-07T15:06:15.326Z,34.90
2018-04-07T15:08:42.762Z,36.10
2018-04-07T15:11:10.205Z,37.00
2018-04-07T15:13:37.629Z,37.80
2018-04-07T15:16:05.839Z,39.00
2018-04-07T15:18:33.282Z,38.90
2018-04-07T15:21:00.751Z,39.30
2018-04-07T15:23:28.197Z,39.80
2018-04-07T15:25:55.625Z,40.00
2018-04-07T15:28:23.846Z,40.10
2018-04-07T15:30:51.282Z,40.00
2018-04-07T15:33:18.736Z,40.50
2018-04-07T15:35:46.166Z,41.20
2018-04-07T15:38:14.370Z,41.40
2018-04-07T15:40:41.807Z,41.40
2018-04-07T15:43:10.018Z,42.00
2018-04-07T15:45:37.460Z,41.90
2018-04-07T15:48:04.910Z,42.10
2018-04-07T15:50:32.331Z,40.80
2018-04-07T15:52:59.773Z,39.00
2018-04-07T15:55:27.212Z,36.90
2018-04-07T15:57:54.650Z,35.10
2018-04-07T16:00:22.091Z,33.60
2018-04-07T16:02:49.529Z,32.20
2018-04-07T16:05:17.743Z,30.10
2018-04-07T16:07:45.187Z,30.00
2018-04-07T16:10:12.626Z,29.30
2018-04-07T16:12:40.083Z,28.60
2018-04-07T16:15:07.533Z,28.10
2018-04-07T16:17:34.984Z,27.50
2018-04-07T16:22:36.496Z,26.30
2018-04-07T16:25:05.242Z,26.30
2018-04-07T16:27:33.450Z,25.70
2018-04-07T16:30:00.936Z,25.60
2018-04-07T16:32:28.362Z,25.40
2018-04-07T16:34:55.809Z,25.20
2018-04-07T16:37:23.254Z,25.00
2018-04-07T16:39:50.692Z,24.80
2018-04-07T16:42:18.121Z,24.60
2018-04-07T16:44:45.574Z,24.50
2018-04-07T16:47:13.026Z,24.30
2018-04-07T16:49:40.457Z,24.20
2018-04-07T16:52:07.892Z,24.10
2018-04-07T16:54:35.334Z,23.90
2018-04-07T16:57:02.771Z,23.90
2018-04-07T16:59:30.198Z,23.70
2018-04-07T17:01:57.647Z,23.60
2018-04-07T17:04:25.089Z,23.50
2018-04-07T17:06:52.528Z,23.40
2018-04-07T17:09:19.964Z,23.30
2018-04-07T17:11:53.067Z,23.10
2018-04-07T17:14:20.510Z,23.00
2018-04-07T17:16:48.728Z,22.90
2018-04-07T17:19:16.177Z,22.90
2018-04-07T17:21:43.626Z,22.80
2018-04-07T17:24:11.052Z,22.70
2018-04-07T17:26:39.263Z,22.60
2018-04-07T17:29:06.715Z,22.50
2018-04-07T17:31:34.157Z,22.50
2018-04-07T17:34:01.606Z,22.40
2018-04-07T17:36:29.041Z,22.40
2018-04-07T17:38:57.265Z,22.30
2018-04-07T17:41:24.703Z,22.20
2018-04-07T17:43:52.155Z,22.20
2018-04-07T17:46:19.990Z,22.10
2018-04-07T17:48:47.437Z,22.00
2018-04-07T17:51:14.875Z,22.00
2018-04-07T17:53:42.342Z,21.90
2018-04-07T17:56:09.795Z,21.80
2018-04-07T17:58:37.241Z,21.80
2018-04-07T18:01:04.694Z,21.70
2018-04-07T18:03:32.187Z,21.60
2018-04-07T18:05:59.633Z,21.50
2018-04-07T18:08:27.075Z,21.40
2018-04-07T18:10:54.522Z,21.30
2018-04-07T18:13:21.983Z,21.20
2018-04-07T18:15:49.450Z,21.10
2018-04-07T18:18:16.899Z,21.00
2018-04-07T18:20:44.360Z,21.00
2018-04-07T18:23:11.818Z,20.90
2018-04-07T18:25:39.303Z,20.80
2018-04-07T18:28:06.743Z,20.70
2018-04-07T18:30:34.205Z,20.60
2018-04-07T18:33:01.687Z,20.60
2018-04-07T18:35:29.150Z,20.50
2018-04-07T18:37:56.599Z,20.40
2018-04-07T18:40:24.828Z,20.30
2018-04-07T18:42:52.279Z,20.30
2018-04-07T18:45:19.738Z,20.20
2018-04-07T18:47:47.170Z,20.20
2018-04-07T18:50:14.624Z,20.10
2018-04-07T18:52:42.066Z,20.00
2018-04-07T18:55:09.544Z,20.00
2018-04-07T18:57:36.995Z,19.90
2018-04-07T19:00:04.453Z,19.90
2018-04-07T19:02:31.890Z,19.80
2018-04-07T19:04:59.362Z,19.70
2018-04-07T19:07:26.801Z,19.70
2018-04-07T19:09:54.259Z,19.60
2018-04-07T19:12:22.491Z,19.50
2018-04-07T19:14:49.950Z,19.50
2018-04-07T19:17:17.411Z,19.40
2018-04-07T19:19:44.863Z,19.40
2018-04-07T19:22:12.322Z,19.30
2018-04-07T19:24:39.791Z,19.20
2018-04-07T19:27:07.259Z,19.20
2018-04-07T19:29:35.470Z,19.10
2018-04-07T19:32:02.925Z,19.10
2018-04-07T19:34:30.367Z,19.10
2018-04-07T19:36:57.824Z,19.00
2018-04-07T19:39:25.281Z,19.00
2018-04-07T19:41:52.718Z,18.90
2018-04-07T19:44:20.175Z,18.80
2018-04-07T19:46:47.658Z,18.80
2018-04-07T19:49:15.094Z,18.80
2018-04-07T19:51:42.549Z,18.70
2018-04-07T19:54:09.999Z,18.70
2018-04-07T19:56:38.226Z,18.60
2018-04-07T19:59:05.680Z,18.60
2018-04-07T20:01:33.158Z,18.50
2018-04-07T20:04:00.594Z,18.50
2018-04-07T20:06:28.058Z,18.40
2018-04-07T20:08:55.519Z,18.40
2018-04-07T20:11:22.967Z,18.30
2018-04-07T20:13:50.421Z,18.20
2018-04-07T20:16:17.884Z,18.20
2018-04-07T20:18:45.329Z,18.20
2018-04-07T20:21:12.788Z,18.10
2018-04-07T20:23:40.241Z,18.00
2018-04-07T20:26:07.684Z,18.00
2018-04-07T20:28:35.142Z,17.90
2018-04-07T20:31:02.582Z,17.90
2018-04-07T20:33:30.051Z,17.80
2018-04-07T20:35:57.493Z,17.80
2018-04-07T20:38:24.958Z,17.70
2018-04-07T20:40:55.350Z,17.60
2018-04-07T20:43:23.566Z,17.60
2018-04-07T20:45:51.009Z,17.60
2018-04-07T20:48:18.450Z,17.50
2018-04-07T20:50:45.909Z,17.50
2018-04-07T20:53:13.360Z,17.40
2018-04-07T20:55:41.565Z,17.30
2018-04-07T20:58:09.024Z,17.30
2018-04-07T21:00:36.470Z,17.20
2018-04-07T21:03:03.930Z,17.20
2018-04-07T21:05:31.375Z,17.20
2018-04-07T21:07:58.827Z,17.10
2018-04-07T21:10:26.286Z,17.00
2018-04-07T21:12:53.739Z,16.90
2018-04-07T21:15:21.199Z,16.90
2018-04-07T21:17:48.643Z,16.80
2018-04-07T21:20:16.101Z,16.70
2018-04-07T21:22:43.563Z,16.70
2018-04-07T21:25:11.012Z,16.60
2018-04-07T21:27:38.456Z,16.50
2018-04-07T21:30:06.678Z,16.40
2018-04-07T21:32:34.126Z,16.30
2018-04-07T21:35:01.583Z,16.30
2018-04-07T21:37:29.042Z,16.30
2018-04-07T21:39:56.494Z,16.20
2018-04-07T21:42:23.936Z,16.10
2018-04-07T21:44:51.392Z,16.10
2018-04-07T21:47:18.837Z,16.00
2018-04-07T21:49:46.290Z,15.90
2018-04-07T21:52:13.781Z,15.90
2018-04-07T21:54:41.218Z,15.80
2018-04-07T21:57:08.662Z,15.70
2018-04-07T21:59:36.130Z,15.70
2018-04-07T22:02:04.326Z,15.60
2018-04-07T22:04:31.782Z,15.50
2018-04-07T22:06:59.231Z,15.50
2018-04-07T22:09:26.709Z,15.50
2018-04-07T22:11:55.131Z,15.40
2018-04-07T22:14:23.351Z,15.30
2018-04-07T22:16:50.798Z,15.20
2018-04-07T22:19:18.287Z,15.20
2018-04-07T22:21:45.715Z,15.20
2018-04-07T22:24:13.163Z,15.10
2018-04-07T22:26:40.604Z,15.10
2018-04-07T22:29:08.065Z,15.00
2018-04-07T22:31:35.506Z,14.90
2018-04-07T22:34:02.975Z,14.90
2018-04-07T22:36:30.416Z,14.90
2018-04-07T22:38:58.625Z,14.80
2018-04-07T22:41:26.078Z,14.80
2018-04-07T22:43:53.534Z,14.70
2018-04-07T22:46:21.671Z,14.70
2018-04-07T22:48:49.887Z,14.60
2018-04-07T22:51:17.372Z,14.60
2018-04-07T22:53:44.796Z,14.60
2018-04-07T22:56:12.242Z,14.50
2018-04-07T22:58:39.697Z,14.50
2018-04-07T23:01:07.158Z,14.50
2018-04-07T23:03:34.614Z,14.40
2018-04-07T23:06:02.061Z,14.30
2018-04-07T23:08:29.502Z,14.20
2018-04-07T23:10:56.950Z,14.10
2018-04-07T23:13:25.162Z,14.00
2018-04-07T23:15:52.618Z,14.00
2018-04-07T23:18:20.054Z,13.90
2018-04-07T23:20:47.505Z,13.90
2018-04-07T23:23:15.704Z,13.80
2018-04-07T23:25:43.153Z,13.80
2018-04-07T23:28:10.602Z,13.80
2018-04-07T23:30:38.051Z,13.70
2018-04-07T23:33:05.498Z,13.60
2018-04-07T23:35:33.739Z,13.60
2018-04-07T23:38:01.182Z,13.50
2018-04-07T23:40:28.617Z,13.50
2018-04-07T23:42:56.070Z,13.50
2018-04-07T23:45:23.514Z,13.50
2018-04-07T23:47:50.970Z,13.40
2018-04-07T23:50:18.411Z,13.30
2018-04-07T23:52:46.650Z,13.20
2018-04-07T23:55:14.106Z,13.20
2018-04-07T23:57:41.562Z,13.20
